»·PEaware :: N48427 KSTS-KSAC

N48427 :: KSTS-KSAC

FLIGHT INFORMATION

Flight Status: Arrived
Operator: Privately registered:
United States
More flights under this callsign
Pilot: Dheeraj L. (18560)
Aircraft: Unknown
(P28T)
More flights by this aircraft type
Origin: KSTS Sonoma Co
United States
Destination: KSAC Sacramento Executive
United States
More flights between these airports :: More routes between these airports
Route: +CHRLY5 STS V494 SAC
File this flight plan on PilotEdge
Remarks: Departing RWY14
Altitude:
(Current/Filed)
7,000ft
Speed:
(Current/Filed)
170kts
Departed: 02-Jul-18 11:05 AM
Arrived: 02-Jul-18 11:45 AM
Distance/Time
Traveled:
62nm/0:40
Distance/Time
To Go:
Arrived

Flight Plot

Page will automatically refresh every two minutes.

Flight plan parsing failed; only flown route is shown


Map Options




Map Legend


Flown Route
Filed Route
Departure Airport
Arrival Airport
Navaid (VOR, NDB)
Fix

Horizontal Profiles

Position Reports

Time Latitude Longitude Heading Altitude Ground
Speed
02-Jul-18 10:51 38.512034 -122.805423 359 127ft 0kts
02-Jul-18 10:52 38.512034 -122.805423 359 127ft 0kts
02-Jul-18 10:53 38.512036 -122.805423 359 127ft 0kts
02-Jul-18 10:54 38.512044 -122.805423 359 127ft 0kts
02-Jul-18 10:55 38.512055 -122.805423 359 127ft 0kts
02-Jul-18 10:56 38.512066 -122.805423 359 127ft 0kts
02-Jul-18 10:58 38.512074 -122.805423 359 127ft 0kts
02-Jul-18 10:58 38.512080 -122.805423 359 127ft 0kts
02-Jul-18 10:59 38.512090 -122.805424 359 127ft 0kts
02-Jul-18 11:00 38.512172 -122.806169 270 127ft 15kts
02-Jul-18 11:01 38.506930 -122.806189 170 127ft 16kts
02-Jul-18 11:02 38.503680 -122.804809 157 127ft 31kts
02-Jul-18 11:03 38.502721 -122.804794 248 127ft 0kts
02-Jul-18 11:04 38.503056 -122.806038 332 127ft 18kts
02-Jul-18 11:05 38.520434 -122.821051 300 1240ft 88kts
02-Jul-18 11:06 38.539383 -122.845050 320 2777ft 95kts
02-Jul-18 11:07 38.542945 -122.869551 178 4041ft 122kts
02-Jul-18 11:08 38.523869 -122.843087 91 4679ft 101kts
02-Jul-18 11:09 38.522849 -122.806553 89 5347ft 106kts
02-Jul-18 11:10 38.510555 -122.771951 92 6394ft 109kts
02-Jul-18 11:11 38.512142 -122.734832 82 6978ft 103kts
02-Jul-18 11:12 38.515159 -122.696093 79 7824ft 115kts
02-Jul-18 11:13 38.512891 -122.653520 93 8817ft 127kts
02-Jul-18 11:14 38.512884 -122.607945 80 9054ft 132kts
02-Jul-18 11:15 38.516314 -122.556615 86 9023ft 155kts
02-Jul-18 11:16 38.513058 -122.500610 92 9011ft 158kts
02-Jul-18 11:17 38.517128 -122.444034 81 8893ft 161kts
02-Jul-18 11:18 38.520390 -122.387281 85 8860ft 160kts
02-Jul-18 11:19 38.522114 -122.330953 90 8923ft 158kts
02-Jul-18 11:20 38.522332 -122.275343 87 8984ft 157kts
02-Jul-18 11:21 38.521702 -122.219557 97 9032ft 159kts
02-Jul-18 11:22 38.505546 -122.166925 112 9268ft 160kts
02-Jul-18 11:23 38.487188 -122.112851 109 9181ft 174kts
02-Jul-18 11:24 38.476574 -122.054946 92 9020ft 159kts
02-Jul-18 11:25 38.474797 -122.000151 84 8863ft 155kts
02-Jul-18 11:26 38.485784 -121.947454 66 8764ft 149kts
02-Jul-18 11:27 38.490453 -121.893986 94 8495ft 154kts
02-Jul-18 11:28 38.480227 -121.841989 108 8141ft 149kts
02-Jul-18 11:29 38.472100 -121.789899 96 7336ft 149kts
02-Jul-18 11:30 38.467196 -121.738182 98 6537ft 142kts
02-Jul-18 11:31 38.461640 -121.687852 91 5543ft 141kts
02-Jul-18 11:32 38.458466 -121.638051 100 4677ft 141kts
02-Jul-18 11:33 38.452776 -121.590672 96 3815ft 134kts
02-Jul-18 11:34 38.437849 -121.547758 154 3221ft 130kts
02-Jul-18 11:35 38.411346 -121.565446 239 2621ft 110kts
02-Jul-18 11:36 38.387293 -121.582122 163 2332ft 97kts
02-Jul-18 11:37 38.396769 -121.565678 335 1820ft 100kts
02-Jul-18 11:38 38.424232 -121.564676 17 1532ft 109kts
02-Jul-18 11:39 38.451025 -121.545348 39 1151ft 110kts
02-Jul-18 11:40 38.474614 -121.521369 35 1071ft 108kts
02-Jul-18 11:41 38.498203 -121.499063 36 904ft 101kts
02-Jul-18 11:42 38.520955 -121.478751 41 581ft 96kts
02-Jul-18 11:43 38.529954 -121.478030 225 280ft 77kts
02-Jul-18 11:44 38.512792 -121.494476 214 26ft 51kts
02-Jul-18 11:45 38.511369 -121.497142 294 26ft 2kts
02-Jul-18 11:46 38.514594 -121.494833 0 26ft 6kts
02-Jul-18 11:47 38.516328 -121.496431 316 26ft 17kts
02-Jul-18 11:48 38.516737 -121.497266 217 26ft 0kts
02-Jul-18 11:49 38.516737 -121.497266 217 26ft 0kts
02-Jul-18 11:50 38.516736 -121.497267 217 26ft 0kts
02-Jul-18 11:51 38.516736 -121.497267 217 26ft 0kts
02-Jul-18 11:52 38.516736 -121.497268 217 26ft 0kts
02-Jul-18 11:53 38.516735 -121.497268 217 26ft 0kts

Navigation Log

Ident Type
Flight plan parsing failed, navigation log unavailable